sensor_id;sensor_type;location;lat;lon;timestamp;pressure;altitude;pressure_sealevel;temperature;humidity
31483;BME280;18103;52.246;8.052;2023-01-25T00:01:12;102591.28;;;0.43;80.74
31483;BME280;18103;52.246;8.052;2023-01-25T00:03:38;102588.69;;;0.43;79.87
31483;BME280;18103;52.246;8.052;2023-01-25T00:06:03;102586.94;;;0.37;80.35
31483;BME280;18103;52.246;8.052;2023-01-25T00:08:28;102585.22;;;0.42;80.32
31483;BME280;18103;52.246;8.052;2023-01-25T00:10:54;102590.41;;;0.36;80.03
31483;BME280;18103;52.246;8.052;2023-01-25T00:13:19;102584.34;;;0.34;80.22
31483;BME280;18103;52.246;8.052;2023-01-25T00:15:45;102574.84;;;0.25;80.32
31483;BME280;18103;52.246;8.052;2023-01-25T00:18:10;102575.69;;;0.33;80.32
31483;BME280;18103;52.246;8.052;2023-01-25T00:20:36;102572.25;;;0.28;80.23
31483;BME280;18103;52.246;8.052;2023-01-25T00:23:01;102559.25;;;0.11;80.63
31483;BME280;18103;52.246;8.052;2023-01-25T00:25:26;102560.09;;;0.33;80.60
31483;BME280;18103;52.246;8.052;2023-01-25T00:27:52;102555.78;;;0.36;80.22
31483;BME280;18103;52.246;8.052;2023-01-25T00:30:17;102551.44;;;0.36;79.96
31483;BME280;18103;52.246;8.052;2023-01-25T00:35:12;102547.97;;;0.26;80.33
31483;BME280;18103;52.246;8.052;2023-01-25T00:37:41;102545.41;;;0.31;80.26
31483;BME280;18103;52.246;8.052;2023-01-25T00:40:09;102547.13;;;0.35;80.20
31483;BME280;18103;52.246;8.052;2023-01-25T00:42:35;102547.13;;;0.44;79.86
31483;BME280;18103;52.246;8.052;2023-01-25T00:45:00;102543.66;;;0.36;80.13
31483;BME280;18103;52.246;8.052;2023-01-25T00:47:26;102547.09;;;0.20;80.36
31483;BME280;18103;52.246;8.052;2023-01-25T00:49:51;102560.13;;;0.23;80.20
31483;BME280;18103;52.246;8.052;2023-01-25T00:52:17;102550.59;;;0.34;80.10
31483;BME280;18103;52.246;8.052;2023-01-25T00:54:42;102554.91;;;0.27;80.61
31483;BME280;18103;52.246;8.052;2023-01-25T00:57:08;102546.25;;;0.39;79.75
31483;BME280;18103;52.246;8.052;2023-01-25T00:59:34;102549.72;;;0.44;79.40
31483;BME280;18103;52.246;8.052;2023-01-25T01:01:59;102547.97;;;0.23;80.61
31483;BME280;18103;52.246;8.052;2023-01-25T01:04:25;102541.91;;;0.33;79.59
31483;BME280;18103;52.246;8.052;2023-01-25T01:06:52;102534.13;;;0.46;80.32
31483;BME280;18103;52.246;8.052;2023-01-25T01:09:18;102545.41;;;0.46;80.19
31483;BME280;18103;52.246;8.052;2023-01-25T01:11:44;102535.84;;;0.34;80.58
31483;BME280;18103;52.246;8.052;2023-01-25T01:14:09;102537.59;;;0.39;80.24
31483;BME280;18103;52.246;8.052;2023-01-25T01:16:35;102535.88;;;0.33;80.14
31483;BME280;18103;52.246;8.052;2023-01-25T01:19:00;102535.84;;;0.38;80.88
31483;BME280;18103;52.246;8.052;2023-01-25T01:21:26;102532.41;;;0.37;81.36
31483;BME280;18103;52.246;8.052;2023-01-25T01:23:53;102535.84;;;0.48;80.89
31483;BME280;18103;52.246;8.052;2023-01-25T01:26:18;102535.00;;;0.42;80.29
31483;BME280;18103;52.246;8.052;2023-01-25T01:28:44;102531.53;;;0.44;80.08
31483;BME280;18103;52.246;8.052;2023-01-25T01:31:13;102536.72;;;0.33;80.30
31483;BME280;18103;52.246;8.052;2023-01-25T01:33:38;102527.22;;;0.48;80.12
31483;BME280;18103;52.246;8.052;2023-01-25T01:36:15;102531.53;;;0.43;80.09
31483;BME280;18103;52.246;8.052;2023-01-25T01:38:41;102526.34;;;0.26;80.53
31483;BME280;18103;52.246;8.052;2023-01-25T01:41:07;102531.53;;;0.32;80.37
31483;BME280;18103;52.246;8.052;2023-01-25T01:43:33;102531.53;;;0.32;80.05
31483;BME280;18103;52.246;8.052;2023-01-25T01:46:01;102528.94;;;0.38;80.69
31483;BME280;18103;52.246;8.052;2023-01-25T01:51:15;102535.88;;;0.27;80.99
31483;BME280;18103;52.246;8.052;2023-01-25T01:53:45;102530.69;;;0.28;80.34
31483;BME280;18103;52.246;8.052;2023-01-25T01:56:16;102528.94;;;0.26;80.59
31483;BME280;18103;52.246;8.052;2023-01-25T01:58:43;102528.94;;;0.35;80.08
31483;BME280;18103;52.246;8.052;2023-01-25T02:01:10;102522.00;;;0.29;79.97
31483;BME280;18103;52.246;8.052;2023-01-25T02:03:36;102526.34;;;0.32;79.96
31483;BME280;18103;52.246;8.052;2023-01-25T02:06:06;102529.81;;;0.20;80.74
31483;BME280;18103;52.246;8.052;2023-01-25T02:08:34;102522.88;;;0.22;80.75
31483;BME280;18103;52.246;8.052;2023-01-25T02:11:06;102533.25;;;0.24;80.66
31483;BME280;18103;52.246;8.052;2023-01-25T02:13:34;102522.03;;;0.17;80.59
31483;BME280;18103;52.246;8.052;2023-01-25T02:16:00;102527.22;;;0.15;80.93
31483;BME280;18103;52.246;8.052;2023-01-25T02:18:25;102527.22;;;0.06;81.24
31483;BME280;18103;52.246;8.052;2023-01-25T02:20:52;102532.38;;;0.12;80.77
31483;BME280;18103;52.246;8.052;2023-01-25T02:23:39;102534.16;;;0.23;81.10
31483;BME280;18103;52.246;8.052;2023-01-25T02:26:13;102533.25;;;0.36;80.55
31483;BME280;18103;52.246;8.052;2023-01-25T02:28:44;102530.69;;;0.14;80.76
31483;BME280;18103;52.246;8.052;2023-01-25T02:31:11;102526.34;;;0.09;80.76
31483;BME280;18103;52.246;8.052;2023-01-25T02:33:36;102525.47;;;0.22;80.80
31483;BME280;18103;52.246;8.052;2023-01-25T02:38:35;102518.53;;;0.18;81.05
31483;BME280;18103;52.246;8.052;2023-01-25T02:41:11;102511.63;;;0.08;81.30
31483;BME280;18103;52.246;8.052;2023-01-25T02:43:39;102502.97;;;0.03;82.03
31483;BME280;18103;52.246;8.052;2023-01-25T02:46:29;102503.84;;;0.06;82.15
31483;BME280;18103;52.246;8.052;2023-01-25T02:48:57;102498.66;;;0.20;81.59
31483;BME280;18103;52.246;8.052;2023-01-25T02:51:24;102496.03;;;0.26;81.89
31483;BME280;18103;52.246;8.052;2023-01-25T02:53:51;102486.50;;;0.21;81.92
31483;BME280;18103;52.246;8.052;2023-01-25T02:56:17;102481.31;;;0.30;81.46
31483;BME280;18103;52.246;8.052;2023-01-25T02:58:42;102482.19;;;0.27;81.31
31483;BME280;18103;52.246;8.052;2023-01-25T03:01:08;102479.59;;;0.10;81.79
31483;BME280;18103;52.246;8.052;2023-01-25T03:03:34;102481.34;;;0.02;82.22
31483;BME280;18103;52.246;8.052;2023-01-25T03:05:59;102483.06;;;0.05;82.48
31483;BME280;18103;52.246;8.052;2023-01-25T03:08:24;102476.13;;;-0.06;82.74
31483;BME280;18103;52.246;8.052;2023-01-25T03:10:50;102469.22;;;-0.21;83.53
31483;BME280;18103;52.246;8.052;2023-01-25T03:13:15;102463.16;;;-0.27;83.91
31483;BME280;18103;52.246;8.052;2023-01-25T03:15:41;102465.75;;;-0.06;83.43
31483;BME280;18103;52.246;8.052;2023-01-25T03:18:06;102462.31;;;-0.09;83.33
31483;BME280;18103;52.246;8.052;2023-01-25T03:20:32;102463.13;;;-0.21;83.64
31483;BME280;18103;52.246;8.052;2023-01-25T03:22:57;102458.84;;;-0.10;83.66
31483;BME280;18103;52.246;8.052;2023-01-25T03:25:22;102455.38;;;-0.12;83.86
31483;BME280;18103;52.246;8.052;2023-01-25T03:27:48;102455.38;;;-0.20;83.98
31483;BME280;18103;52.246;8.052;2023-01-25T03:30:13;102443.25;;;-0.36;84.60
31483;BME280;18103;52.246;8.052;2023-01-25T03:32:39;102440.66;;;-0.18;84.23
31483;BME280;18103;52.246;8.052;2023-01-25T03:35:04;102444.13;;;-0.19;84.14
31483;BME280;18103;52.246;8.052;2023-01-25T03:37:30;102440.69;;;-0.10;83.87
31483;BME280;18103;52.246;8.052;2023-01-25T03:39:56;102426.81;;;-0.12;84.03
31483;BME280;18103;52.246;8.052;2023-01-25T03:42:22;102416.44;;;-0.18;84.19
31483;BME280;18103;52.246;8.052;2023-01-25T03:44:47;102418.19;;;-0.12;84.13
31483;BME280;18103;52.246;8.052;2023-01-25T03:47:13;102415.56;;;-0.08;84.04
31483;BME280;18103;52.246;8.052;2023-01-25T03:49:38;102421.63;;;-0.10;84.38
31483;BME280;18103;52.246;8.052;2023-01-25T03:52:04;102428.53;;;-0.19;84.51
31483;BME280;18103;52.246;8.052;2023-01-25T03:54:30;102420.78;;;-0.12;84.42
31483;BME280;18103;52.246;8.052;2023-01-25T03:56:55;102413.00;;;-0.14;84.71
31483;BME280;18103;52.246;8.052;2023-01-25T03:59:21;102411.25;;;-0.24;85.06
31483;BME280;18103;52.246;8.052;2023-01-25T04:01:46;102408.63;;;-0.06;84.46
31483;BME280;18103;52.246;8.052;2023-01-25T04:04:12;102406.06;;;-0.03;84.11
31483;BME280;18103;52.246;8.052;2023-01-25T04:06:37;102392.22;;;-0.11;84.31
31483;BME280;18103;52.246;8.052;2023-01-25T04:09:03;102394.81;;;0.03;84.17
31483;BME280;18103;52.246;8.052;2023-01-25T04:11:28;102395.63;;;0.10;83.61
31483;BME280;18103;52.246;8.052;2023-01-25T04:13:54;102392.19;;;0.08;84.08
31483;BME280;18103;52.246;8.052;2023-01-25T04:16:19;102398.25;;;0.14;83.99
31483;BME280;18103;52.246;8.052;2023-01-25T04:18:44;102389.56;;;0.22;83.56
31483;BME280;18103;52.246;8.052;2023-01-25T04:21:10;102391.34;;;0.09;83.91
31483;BME280;18103;52.246;8.052;2023-01-25T04:23:35;102396.53;;;0.09;84.45
31483;BME280;18103;52.246;8.052;2023-01-25T04:26:03;102394.75;;;0.25;84.08
31483;BME280;18103;52.246;8.052;2023-01-25T04:28:31;102390.41;;;0.30;83.79
31483;BME280;18103;52.246;8.052;2023-01-25T04:30:57;102390.47;;;0.13;84.66
31483;BME280;18103;52.246;8.052;2023-01-25T04:33:22;102396.50;;;0.13;84.29
31483;BME280;18103;52.246;8.052;2023-01-25T04:35:48;102393.91;;;0.13;84.01
31483;BME280;18103;52.246;8.052;2023-01-25T04:38:14;102395.66;;;0.11;84.52
31483;BME280;18103;52.246;8.052;2023-01-25T04:40:39;102394.78;;;0.17;83.98
31483;BME280;18103;52.246;8.052;2023-01-25T04:43:05;102384.41;;;0.06;84.60
31483;BME280;18103;52.246;8.052;2023-01-25T04:45:31;102387.00;;;0.11;84.70
31483;BME280;18103;52.246;8.052;2023-01-25T04:48:00;102395.63;;;0.22;83.63
31483;BME280;18103;52.246;8.052;2023-01-25T04:50:27;102393.00;;;0.24;83.83
31483;BME280;18103;52.246;8.052;2023-01-25T04:52:52;102386.13;;;0.01;84.76
31483;BME280;18103;52.246;8.052;2023-01-25T04:55:18;102389.63;;;0.00;85.38
31483;BME280;18103;52.246;8.052;2023-01-25T04:57:43;102384.41;;;0.03;85.11
31483;BME280;18103;52.246;8.052;2023-01-25T05:00:10;102382.66;;;0.07;84.84
31483;BME280;18103;52.246;8.052;2023-01-25T05:02:36;102386.09;;;0.20;84.38
31483;BME280;18103;52.246;8.052;2023-01-25T05:05:02;102383.53;;;0.09;84.88
31483;BME280;18103;52.246;8.052;2023-01-25T05:07:27;102383.50;;;0.29;84.40
31483;BME280;18103;52.246;8.052;2023-01-25T05:09:52;102377.50;;;0.11;84.81
31483;BME280;18103;52.246;8.052;2023-01-25T05:12:18;102378.34;;;0.09;85.43
31483;BME280;18103;52.246;8.052;2023-01-25T05:14:43;102373.16;;;0.09;85.03
31483;BME280;18103;52.246;8.052;2023-01-25T05:17:09;102379.19;;;0.11;85.05
31483;BME280;18103;52.246;8.052;2023-01-25T05:19:34;102373.13;;;0.20;85.28
31483;BME280;18103;52.246;8.052;2023-01-25T05:22:00;102375.69;;;0.33;84.36
31483;BME280;18103;52.246;8.052;2023-01-25T05:24:31;102380.91;;;0.20;84.58
31483;BME280;18103;52.246;8.052;2023-01-25T05:26:57;102372.25;;;0.21;85.11
31483;BME280;18103;52.246;8.052;2023-01-25T05:29:26;102372.25;;;0.25;84.99
31483;BME280;18103;52.246;8.052;2023-01-25T05:31:52;102375.69;;;0.37;84.10
31483;BME280;18103;52.246;8.052;2023-01-25T05:34:18;102365.31;;;0.29;84.70
31483;BME280;18103;52.246;8.052;2023-01-25T05:36:43;102363.59;;;0.25;84.83
31483;BME280;18103;52.246;8.052;2023-01-25T05:39:08;102360.13;;;0.35;84.58
31483;BME280;18103;52.246;8.052;2023-01-25T05:41:34;102349.72;;;0.38;84.40
31483;BME280;18103;52.246;8.052;2023-01-25T05:43:59;102348.81;;;0.45;83.93
31483;BME280;18103;52.246;8.052;2023-01-25T05:46:28;102359.22;;;0.41;84.42
31483;BME280;18103;52.246;8.052;2023-01-25T05:48:53;102365.28;;;0.41;84.07
31483;BME280;18103;52.246;8.052;2023-01-25T05:51:18;102357.44;;;0.54;84.17
31483;BME280;18103;52.246;8.052;2023-01-25T05:53:44;102358.41;;;0.31;84.52
31483;BME280;18103;52.246;8.052;2023-01-25T05:56:09;102359.28;;;0.27;84.93
31483;BME280;18103;52.246;8.052;2023-01-25T05:58:35;102359.19;;;0.47;84.23
31483;BME280;18103;52.246;8.052;2023-01-25T06:01:02;102360.94;;;0.39;84.66
31483;BME280;18103;52.246;8.052;2023-01-25T06:03:28;102356.56;;;0.50;84.38
31483;BME280;18103;52.246;8.052;2023-01-25T06:05:55;102367.91;;;0.37;84.50
31483;BME280;18103;52.246;8.052;2023-01-25T06:08:20;102362.75;;;0.13;85.04
31483;BME280;18103;52.246;8.052;2023-01-25T06:10:45;102372.28;;;0.08;85.55
31483;BME280;18103;52.246;8.052;2023-01-25T06:13:11;102377.44;;;0.21;85.03
31483;BME280;18103;52.246;8.052;2023-01-25T06:15:37;102366.22;;;0.11;85.58
31483;BME280;18103;52.246;8.052;2023-01-25T06:18:02;102366.19;;;0.23;85.19
31483;BME280;18103;52.246;8.052;2023-01-25T06:20:27;102368.78;;;0.34;84.43
31483;BME280;18103;52.246;8.052;2023-01-25T06:22:53;102366.19;;;0.26;84.84
31483;BME280;18103;52.246;8.052;2023-01-25T06:25:18;102369.63;;;0.33;85.21
31483;BME280;18103;52.246;8.052;2023-01-25T06:27:44;102373.97;;;0.31;85.04
31483;BME280;18103;52.246;8.052;2023-01-25T06:30:09;102363.56;;;0.34;85.21
31483;BME280;18103;52.246;8.052;2023-01-25T06:32:35;102360.97;;;0.37;84.96
31483;BME280;18103;52.246;8.052;2023-01-25T06:35:00;102356.66;;;0.22;85.11
31483;BME280;18103;52.246;8.052;2023-01-25T06:37:26;102361.00;;;0.14;85.34
31483;BME280;18103;52.246;8.052;2023-01-25T06:39:51;102358.44;;;0.15;85.43
31483;BME280;18103;52.246;8.052;2023-01-25T06:42:18;102358.44;;;0.09;85.56
31483;BME280;18103;52.246;8.052;2023-01-25T06:44:44;102353.25;;;0.17;85.14
31483;BME280;18103;52.246;8.052;2023-01-25T06:47:10;102356.69;;;0.14;85.55
31483;BME280;18103;52.246;8.052;2023-01-25T06:49:36;102354.09;;;0.10;85.80
31483;BME280;18103;52.246;8.052;2023-01-25T06:52:02;102350.63;;;0.17;85.37
31483;BME280;18103;52.246;8.052;2023-01-25T06:54:27;102356.66;;;0.30;85.26
31483;BME280;18103;52.246;8.052;2023-01-25T06:56:53;102360.09;;;0.37;85.18
31483;BME280;18103;52.246;8.052;2023-01-25T06:59:18;102348.88;;;0.22;85.35
31483;BME280;18103;52.246;8.052;2023-01-25T07:01:43;102345.44;;;0.15;85.56
31483;BME280;18103;52.246;8.052;2023-01-25T07:04:09;102354.06;;;0.22;85.32
31483;BME280;18103;52.246;8.052;2023-01-25T07:06:38;102352.34;;;0.26;85.58
31483;BME280;18103;52.246;8.052;2023-01-25T07:09:06;102352.31;;;0.29;85.12
31483;BME280;18103;52.246;8.052;2023-01-25T07:11:32;102345.41;;;0.25;85.47
31483;BME280;18103;52.246;8.052;2023-01-25T07:13:57;102354.09;;;0.19;85.36
31483;BME280;18103;52.246;8.052;2023-01-25T07:16:22;102348.84;;;0.33;84.75
31483;BME280;18103;52.246;8.052;2023-01-25T07:18:48;102351.50;;;0.16;85.19
31483;BME280;18103;52.246;8.052;2023-01-25T07:21:16;102348.03;;;0.20;84.98
31483;BME280;18103;52.246;8.052;2023-01-25T07:23:42;102350.66;;;0.08;85.35
31483;BME280;18103;52.246;8.052;2023-01-25T07:26:22;102347.19;;;-0.01;85.81
31483;BME280;18103;52.246;8.052;2023-01-25T07:28:48;102347.22;;;0.06;86.17
31483;BME280;18103;52.246;8.052;2023-01-25T07:31:15;102346.31;;;0.05;85.60
31483;BME280;18103;52.246;8.052;2023-01-25T07:33:41;102348.88;;;0.19;85.55
31483;BME280;18103;52.246;8.052;2023-01-25T07:36:08;102343.69;;;0.25;85.26
31483;BME280;18103;52.246;8.052;2023-01-25T07:38:35;102337.63;;;0.23;84.89
31483;BME280;18103;52.246;8.052;2023-01-25T07:41:01;102335.03;;;0.23;85.02
31483;BME280;18103;52.246;8.052;2023-01-25T07:43:26;102329.88;;;0.06;85.44
31483;BME280;18103;52.246;8.052;2023-01-25T07:45:52;102326.44;;;-0.04;85.78
31483;BME280;18103;52.246;8.052;2023-01-25T07:48:19;102322.16;;;-0.11;86.30
31483;BME280;18103;52.246;8.052;2023-01-25T07:50:45;102318.66;;;-0.04;85.93
31483;BME280;18103;52.246;8.052;2023-01-25T07:53:14;102316.03;;;0.03;85.66
31483;BME280;18103;52.246;8.052;2023-01-25T07:55:39;102313.44;;;0.04;85.45
31483;BME280;18103;52.246;8.052;2023-01-25T07:58:05;102320.41;;;-0.09;85.86
31483;BME280;18103;52.246;8.052;2023-01-25T08:00:30;102316.09;;;-0.16;85.67
31483;BME280;18103;52.246;8.052;2023-01-25T08:02:55;102324.72;;;-0.09;86.10
31483;BME280;18103;52.246;8.052;2023-01-25T08:05:21;102318.63;;;0.04;85.38
31483;BME280;18103;52.246;8.052;2023-01-25T08:07:47;102310.81;;;0.15;85.51
31483;BME280;18103;52.246;8.052;2023-01-25T08:10:12;102315.13;;;0.28;85.12
31483;BME280;18103;52.246;8.052;2023-01-25T08:12:38;102312.50;;;0.24;84.65
31483;BME280;18103;52.246;8.052;2023-01-25T08:15:03;102310.84;;;0.03;85.54
31483;BME280;18103;52.246;8.052;2023-01-25T08:17:29;102304.78;;;0.11;85.36
31483;BME280;18103;52.246;8.052;2023-01-25T08:19:59;102303.88;;;0.14;85.42
31483;BME280;18103;52.246;8.052;2023-01-25T08:22:26;102309.03;;;0.26;84.90
31483;BME280;18103;52.246;8.052;2023-01-25T08:24:51;102305.59;;;0.26;84.45
31483;BME280;18103;52.246;8.052;2023-01-25T08:27:17;102314.31;;;0.06;85.29
31483;BME280;18103;52.246;8.052;2023-01-25T08:29:42;102310.84;;;0.10;85.13
31483;BME280;18103;52.246;8.052;2023-01-25T08:32:07;102316.88;;;0.12;85.17
31483;BME280;18103;52.246;8.052;2023-01-25T08:34:33;102317.72;;;0.19;84.86
31483;BME280;18103;52.246;8.052;2023-01-25T08:36:59;102307.38;;;0.07;85.31
31483;BME280;18103;52.246;8.052;2023-01-25T08:39:24;102309.94;;;0.19;84.67
31483;BME280;18103;52.246;8.052;2023-01-25T08:41:50;102305.66;;;0.07;84.87
31483;BME280;18103;52.246;8.052;2023-01-25T08:44:15;102303.03;;;0.15;84.71
31483;BME280;18103;52.246;8.052;2023-01-25T08:46:41;102309.09;;;0.08;85.30
31483;BME280;18103;52.246;8.052;2023-01-25T08:49:06;102307.31;;;0.24;84.60
31483;BME280;18103;52.246;8.052;2023-01-25T08:51:34;102303.06;;;0.03;85.21
31483;BME280;18103;52.246;8.052;2023-01-25T08:54:07;102305.69;;;-0.05;85.04
31483;BME280;18103;52.246;8.052;2023-01-25T08:56:35;102291.81;;;0.11;84.18
31483;BME280;18103;52.246;8.052;2023-01-25T08:59:00;102290.06;;;0.10;84.58
31483;BME280;18103;52.246;8.052;2023-01-25T09:01:26;102289.19;;;0.14;84.26
31483;BME280;18103;52.246;8.052;2023-01-25T09:03:52;102287.44;;;0.16;84.55
31483;BME280;18103;52.246;8.052;2023-01-25T09:06:18;102284.00;;;0.10;84.69
31483;BME280;18103;52.246;8.052;2023-01-25T09:08:44;102280.56;;;0.03;85.08
31483;BME280;18103;52.246;8.052;2023-01-25T09:11:12;102289.25;;;-0.04;85.14
31483;BME280;18103;52.246;8.052;2023-01-25T09:13:38;102282.31;;;0.06;85.24
31483;BME280;18103;52.246;8.052;2023-01-25T09:16:09;102273.63;;;0.11;85.13
31483;BME280;18103;52.246;8.052;2023-01-25T09:18:36;102272.75;;;0.12;84.90
31483;BME280;18103;52.246;8.052;2023-01-25T09:21:07;102265.03;;;0.00;85.62
31483;BME280;18103;52.246;8.052;2023-01-25T09:23:32;102274.44;;;0.20;84.91
31483;BME280;18103;52.246;8.052;2023-01-25T09:25:59;102266.66;;;0.16;84.51
31483;BME280;18103;52.246;8.052;2023-01-25T09:28:26;102264.13;;;0.03;85.06
31483;BME280;18103;52.246;8.052;2023-01-25T09:30:58;102270.09;;;0.23;84.42
31483;BME280;18103;52.246;8.052;2023-01-25T09:33:29;102261.44;;;0.26;84.39
31483;BME280;18103;52.246;8.052;2023-01-25T09:35:55;102268.31;;;0.36;83.97
31483;BME280;18103;52.246;8.052;2023-01-25T09:38:21;102262.34;;;0.12;84.85
31483;BME280;18103;52.246;8.052;2023-01-25T09:54:38;102257.22;;;0.03;84.59
31483;BME280;18103;52.246;8.052;2023-01-25T09:57:25;102258.94;;;0.06;84.10
31483;BME280;18103;52.246;8.052;2023-01-25T09:59:52;102250.28;;;-0.06;84.45
31483;BME280;18103;52.246;8.052;2023-01-25T10:05:00;102244.22;;;-0.03;83.97
31483;BME280;18103;52.246;8.052;2023-01-25T10:10:42;102233.00;;;-0.02;84.18
31483;BME280;18103;52.246;8.052;2023-01-25T10:13:13;102231.31;;;-0.14;84.39
31483;BME280;18103;52.246;8.052;2023-01-25T10:15:43;102232.19;;;-0.16;84.33
31483;BME280;18103;52.246;8.052;2023-01-25T10:18:36;102234.78;;;-0.20;84.50
31483;BME280;18103;52.246;8.052;2023-01-25T10:21:10;102233.88;;;-0.06;84.51
31483;BME280;18103;52.246;8.052;2023-01-25T10:26:22;102224.31;;;0.02;84.42
31483;BME280;18103;52.246;8.052;2023-01-25T10:29:09;102218.31;;;-0.17;84.38
31483;BME280;18103;52.246;8.052;2023-01-25T10:34:18;102208.88;;;-0.33;84.65
31483;BME280;18103;52.246;8.052;2023-01-25T10:36:48;102205.31;;;-0.03;84.29
31483;BME280;18103;52.246;8.052;2023-01-25T10:39:16;102198.38;;;0.01;83.91
31483;BME280;18103;52.246;8.052;2023-01-25T10:41:45;102201.81;;;0.06;83.75
31483;BME280;18103;52.246;8.052;2023-01-25T10:44:13;102194.94;;;-0.05;83.52
31483;BME280;18103;52.246;8.052;2023-01-25T10:49:41;102194.97;;;-0.12;83.94
31483;BME280;18103;52.246;8.052;2023-01-25T10:52:19;102193.25;;;-0.16;84.29
31483;BME280;18103;52.246;8.052;2023-01-25T10:54:46;102178.47;;;-0.01;84.08
31483;BME280;18103;52.246;8.052;2023-01-25T10:57:19;102180.25;;;-0.13;84.41
31483;BME280;18103;52.246;8.052;2023-01-25T10:59:47;102183.69;;;-0.11;84.14
31483;BME280;18103;52.246;8.052;2023-01-25T11:02:37;102190.69;;;-0.24;84.48
31483;BME280;18103;52.246;8.052;2023-01-25T11:07:52;102163.84;;;-0.14;83.94
31483;BME280;18103;52.246;8.052;2023-01-25T11:18:52;102145.69;;;-0.22;83.55
31483;BME280;18103;52.246;8.052;2023-01-25T11:21:23;102150.97;;;-0.48;83.52
31483;BME280;18103;52.246;8.052;2023-01-25T11:26:37;102128.38;;;-0.16;83.25
31483;BME280;18103;52.246;8.052;2023-01-25T11:29:17;102123.97;;;-0.04;82.81
31483;BME280;18103;52.246;8.052;2023-01-25T11:31:46;102117.94;;;-0.07;82.65
31483;BME280;18103;52.246;8.052;2023-01-25T11:34:14;102101.44;;;0.03;82.51
31483;BME280;18103;52.246;8.052;2023-01-25T11:37:10;102100.56;;;0.03;82.67
31483;BME280;18103;52.246;8.052;2023-01-25T11:48:00;102072.03;;;-0.01;82.58
31483;BME280;18103;52.246;8.052;2023-01-25T11:50:35;102066.91;;;-0.08;82.39
31483;BME280;18103;52.246;8.052;2023-01-25T11:56:03;102060.09;;;-0.28;83.25
31483;BME280;18103;52.246;8.052;2023-01-25T11:58:49;102062.56;;;-0.06;82.83
31483;BME280;18103;52.246;8.052;2023-01-25T12:04:56;102039.34;;;-0.25;83.14
31483;BME280;18103;52.246;8.052;2023-01-25T12:15:20;102017.69;;;-0.25;82.75
31483;BME280;18103;52.246;8.052;2023-01-25T12:23:13;101990.16;;;-0.43;83.29
31483;BME280;18103;52.246;8.052;2023-01-25T12:29:03;101985.75;;;-0.30;82.71
31483;BME280;18103;52.246;8.052;2023-01-25T12:31:42;101974.38;;;-0.11;82.26
31483;BME280;18103;52.246;8.052;2023-01-25T12:34:17;101964.81;;;-0.09;81.94
31483;BME280;18103;52.246;8.052;2023-01-25T12:36:47;101956.22;;;-0.12;81.92
31483;BME280;18103;52.246;8.052;2023-01-25T12:44:25;101937.03;;;0.03;81.70
31483;BME280;18103;52.246;8.052;2023-01-25T12:52:19;101930.25;;;-0.15;81.31
31483;BME280;18103;52.246;8.052;2023-01-25T12:54:47;101914.69;;;-0.12;81.81
31483;BME280;18103;52.246;8.052;2023-01-25T12:57:28;101904.25;;;-0.08;81.95
31483;BME280;18103;52.246;8.052;2023-01-25T13:05:33;101893.19;;;-0.28;82.52
31483;BME280;18103;52.246;8.052;2023-01-25T13:10:51;101886.44;;;-0.49;82.57
31483;BME280;18103;52.246;8.052;2023-01-25T13:13:26;101889.94;;;-0.57;83.27
31483;BME280;18103;52.246;8.052;2023-01-25T13:15:52;101876.13;;;-0.60;83.11
31483;BME280;18103;52.246;8.052;2023-01-25T13:20:58;101877.63;;;-0.30;82.89
31483;BME280;18103;52.246;8.052;2023-01-25T13:28:46;101862.69;;;-0.05;81.66
31483;BME280;18103;52.246;8.052;2023-01-25T13:34:12;101862.66;;;0.00;81.56
31483;BME280;18103;52.246;8.052;2023-01-25T13:44:47;101859.34;;;-0.16;81.51
31483;BME280;18103;52.246;8.052;2023-01-25T13:47:20;101858.75;;;-0.46;82.05
31483;BME280;18103;52.246;8.052;2023-01-25T13:52:23;101850.88;;;-0.33;81.66
31483;BME280;18103;52.246;8.052;2023-01-25T13:54:49;101856.16;;;-0.50;81.91
31483;BME280;18103;52.246;8.052;2023-01-25T13:57:21;101848.44;;;-0.57;82.04
31483;BME280;18103;52.246;8.052;2023-01-25T13:59:47;101840.59;;;-0.46;82.05
31483;BME280;18103;52.246;8.052;2023-01-25T14:02:17;101849.16;;;-0.36;81.98
31483;BME280;18103;52.246;8.052;2023-01-25T14:04:48;101843.06;;;-0.35;82.06
31483;BME280;18103;52.246;8.052;2023-01-25T14:07:20;101846.59;;;-0.42;82.10
31483;BME280;18103;52.246;8.052;2023-01-25T14:09:49;101842.28;;;-0.42;82.00
31483;BME280;18103;52.246;8.052;2023-01-25T14:12:33;101839.72;;;-0.43;81.59
31483;BME280;18103;52.246;8.052;2023-01-25T14:15:20;101840.56;;;-0.44;81.73
31483;BME280;18103;52.246;8.052;2023-01-25T14:18:09;101837.94;;;-0.41;81.83
31483;BME280;18103;52.246;8.052;2023-01-25T14:20:36;101844.81;;;-0.36;81.26
31483;BME280;18103;52.246;8.052;2023-01-25T14:23:01;101848.50;;;-0.63;82.05
31483;BME280;18103;52.246;8.052;2023-01-25T14:25:28;101840.72;;;-0.61;81.86
31483;BME280;18103;52.246;8.052;2023-01-25T14:27:58;101832.78;;;-0.44;81.78
31483;BME280;18103;52.246;8.052;2023-01-25T14:30:27;101837.00;;;-0.29;81.33
31483;BME280;18103;52.246;8.052;2023-01-25T14:32:54;101833.59;;;-0.36;81.48
31483;BME280;18103;52.246;8.052;2023-01-25T14:35:31;101822.41;;;-0.43;81.67
31483;BME280;18103;52.246;8.052;2023-01-25T14:37:57;101827.66;;;-0.49;81.87
31483;BME280;18103;52.246;8.052;2023-01-25T14:40:25;101830.19;;;-0.44;80.99
31483;BME280;18103;52.246;8.052;2023-01-25T14:42:52;101817.38;;;-0.64;81.04
31483;BME280;18103;52.246;8.052;2023-01-25T14:45:20;101812.94;;;-0.47;81.08
31483;BME280;18103;52.246;8.052;2023-01-25T14:47:48;101813.81;;;-0.51;81.21
31483;BME280;18103;52.246;8.052;2023-01-25T14:50:36;101808.72;;;-0.62;81.43
31483;BME280;18103;52.246;8.052;2023-01-25T14:53:06;101803.50;;;-0.56;81.16
31483;BME280;18103;52.246;8.052;2023-01-25T14:55:34;101796.63;;;-0.60;81.29
31483;BME280;18103;52.246;8.052;2023-01-25T14:58:01;101787.97;;;-0.59;81.17
31483;BME280;18103;52.246;8.052;2023-01-25T15:00:30;101788.00;;;-0.63;81.14
31483;BME280;18103;52.246;8.052;2023-01-25T15:03:03;101786.28;;;-0.63;81.55